Time;durP1;ratioP1;P1;durP2;ratioP2;P2;SDS_P1;SDS_P2;PMS_P1;PMS_P2;Temp;Humidity;BMP_temperature;BMP_pressure;BME280_temperature;BME280_humidity;BME280_pressure;Samples;Min_cycle;Max_cycle;Signal;HPM_P1;HPM_P2
2022/04/28 00:00:24;;;;;;;7.95;5.35;;;14.20;99.90;;;;;;5100489;28;20127;-74
2022/04/28 00:02:51;;;;;;;8.32;5.57;;;14.20;99.90;;;;;;5100537;28;20020;-74
2022/04/28 00:05:17;;;;;;;8.82;5.75;;;14.20;99.90;;;;;;5100111;28;20365;-74
2022/04/28 00:07:43;;;;;;;9.02;5.47;;;14.20;99.90;;;;;;5100496;28;20020;-74
2022/04/28 00:10:10;;;;;;;7.80;4.90;;;14.10;99.90;;;;;;5100314;28;20158;-74
2022/04/28 00:12:37;;;;;;;7.90;5.63;;;14.10;99.90;;;;;;5099106;28;20016;-75
2022/04/28 00:15:03;;;;;;;12.57;6.10;;;14.10;99.90;;;;;;5097537;28;20020;-74
2022/04/28 00:17:29;;;;;;;8.88;5.93;;;14.00;99.90;;;;;;5089285;28;20015;-74
2022/04/28 00:19:55;;;;;;;6.82;5.15;;;14.00;99.90;;;;;;5100040;28;20384;-74
2022/04/28 00:22:23;;;;;;;7.72;5.35;;;14.00;99.90;;;;;;5098791;28;20020;-74
2022/04/28 00:24:50;;;;;;;9.85;5.45;;;13.90;99.90;;;;;;5090207;28;20017;-74
2022/04/28 00:27:15;;;;;;;10.85;5.07;;;13.90;99.90;;;;;;5099970;28;20035;-74
2022/04/28 00:29:41;;;;;;;11.68;5.47;;;13.80;99.90;;;;;;5098416;28;20020;-74
2022/04/28 00:32:08;;;;;;;6.55;4.70;;;13.80;99.90;;;;;;5100002;28;20021;-74
2022/04/28 00:34:34;;;;;;;9.10;5.20;;;13.70;99.90;;;;;;5099496;28;20438;-74
2022/04/28 00:36:59;;;;;;;6.68;5.03;;;13.70;99.90;;;;;;5098625;28;20024;-74
2022/04/28 00:39:25;;;;;;;7.40;4.63;;;13.60;99.90;;;;;;5099838;28;20020;-74
2022/04/28 00:41:51;;;;;;;7.50;4.85;;;13.50;99.90;;;;;;5099826;28;20036;-74
2022/04/28 00:44:17;;;;;;;11.05;5.57;;;13.50;99.90;;;;;;5099237;28;20028;-74
2022/04/28 00:46:43;;;;;;;10.63;5.13;;;13.50;99.90;;;;;;5099594;28;20080;-74
2022/04/28 00:51:55;;;;;;;6.45;4.82;;;13.40;99.90;;;;;;5099817;28;20122;-74
2022/04/28 00:54:22;;;;;;;8.18;6.22;;;13.30;99.90;;;;;;5097927;28;20020;-74
2022/04/28 00:56:48;;;;;;;10.15;5.72;;;13.20;99.90;;;;;;5099315;28;20384;-74
2022/04/28 00:59:14;;;;;;;12.75;5.75;;;13.20;99.90;;;;;;5097808;28;20107;-74
2022/04/28 01:01:40;;;;;;;7.03;5.57;;;13.20;99.90;;;;;;5099677;28;20109;-74
2022/04/28 01:04:06;;;;;;;7.68;5.43;;;13.20;99.90;;;;;;5097639;28;20024;-74
2022/04/28 01:06:32;;;;;;;8.77;5.90;;;13.20;99.90;;;;;;5099309;28;20434;-74
2022/04/28 01:08:59;;;;;;;9.27;6.10;;;13.10;99.90;;;;;;5099151;28;20030;-74
2022/04/28 01:11:27;;;;;;;7.00;5.32;;;13.10;99.90;;;;;;5099119;28;20016;-74
2022/04/28 01:13:52;;;;;;;9.38;5.88;;;13.10;99.90;;;;;;5098886;28;20051;-73
2022/04/28 01:16:18;;;;;;;7.97;5.75;;;13.10;99.90;;;;;;5084621;28;20031;-74
2022/04/28 01:18:44;;;;;;;10.95;6.13;;;13.10;99.90;;;;;;5092184;28;20028;-74
2022/04/28 01:21:10;;;;;;;8.70;6.28;;;13.10;99.90;;;;;;5077300;28;20041;-74
2022/04/28 01:23:37;;;;;;;10.73;5.97;;;13.20;99.90;;;;;;5095188;28;20028;-74
2022/04/28 01:26:04;;;;;;;11.73;7.20;;;13.30;99.90;;;;;;5090553;28;20115;-74
2022/04/28 01:28:32;;;;;;;9.80;6.57;;;13.40;99.90;;;;;;5098773;28;20097;-74
2022/04/28 01:31:05;;;;;;;11.10;6.38;;;13.50;99.90;;;;;;5098745;28;20024;-75
2022/04/28 01:33:31;;;;;;;9.07;6.10;;;13.60;99.90;;;;;;5097219;28;20046;-73
2022/04/28 01:35:57;;;;;;;9.25;6.07;;;13.70;99.90;;;;;;5098609;28;20073;-74
2022/04/28 01:38:24;;;;;;;10.93;6.25;;;13.70;99.90;;;;;;5098794;28;20067;-74
2022/04/28 01:40:49;;;;;;;7.18;5.38;;;13.80;99.90;;;;;;5098572;28;20050;-74
2022/04/28 01:43:15;;;;;;;10.45;6.35;;;13.90;99.90;;;;;;5098601;28;20024;-74
2022/04/28 01:45:41;;;;;;;8.40;6.47;;;13.90;99.90;;;;;;5096886;28;20149;-74
2022/04/28 01:48:07;;;;;;;12.13;6.68;;;14.00;99.90;;;;;;5098225;28;20496;-74
2022/04/28 01:50:33;;;;;;;13.75;5.90;;;14.00;99.90;;;;;;5098346;28;20027;-74
2022/04/28 01:55:43;;;;;;;14.68;6.20;;;14.10;99.90;;;;;;5098294;28;20035;-74
2022/04/28 01:58:09;;;;;;;11.35;5.70;;;14.10;99.90;;;;;;5098282;28;20020;-74
2022/04/28 02:00:35;;;;;;;10.23;5.07;;;14.10;99.90;;;;;;5096782;28;20488;-74
2022/04/28 02:03:01;;;;;;;7.18;5.15;;;14.10;99.90;;;;;;5098025;28;20046;-74
2022/04/28 02:05:27;;;;;;;12.23;6.32;;;14.10;99.90;;;;;;5096668;28;20028;-74
2022/04/28 02:07:53;;;;;;;12.23;6.00;;;14.10;99.90;;;;;;5097484;28;20020;-74
2022/04/28 02:10:19;;;;;;;8.85;6.10;;;14.10;99.90;;;;;;5098219;28;20032;-74
2022/04/28 02:12:45;;;;;;;11.23;6.22;;;14.10;99.90;;;;;;5098132;28;20026;-74
2022/04/28 02:15:11;;;;;;;8.98;6.03;;;14.10;99.90;;;;;;5094178;28;20028;-74
2022/04/28 02:17:38;;;;;;;7.90;6.05;;;14.10;99.90;;;;;;5088123;28;20020;-74
2022/04/28 02:20:09;;;;;;;12.57;7.15;;;14.10;99.90;;;;;;5097630;28;20490;-74
2022/04/28 02:22:36;;;;;;;12.45;5.75;;;14.10;99.90;;;;;;5096477;28;20024;-74
2022/04/28 02:25:02;;;;;;;15.77;6.47;;;14.10;99.90;;;;;;5094021;28;20024;-74
2022/04/28 02:27:28;;;;;;;7.75;5.60;;;14.10;99.90;;;;;;5096380;28;20377;-74
2022/04/28 02:29:54;;;;;;;9.18;5.47;;;14.10;99.90;;;;;;5097511;28;20035;-74
2022/04/28 02:32:20;;;;;;;10.75;6.15;;;14.10;99.90;;;;;;5096703;28;20020;-74
2022/04/28 02:34:46;;;;;;;11.90;5.97;;;14.10;99.90;;;;;;5097315;28;20031;-74
2022/04/28 02:37:13;;;;;;;9.23;6.38;;;14.10;99.90;;;;;;5097634;28;20442;-74
2022/04/28 02:39:40;;;;;;;8.95;5.32;;;14.10;99.90;;;;;;5097549;28;20020;-74
2022/04/28 02:42:06;;;;;;;10.05;6.03;;;14.20;99.90;;;;;;5096280;28;20024;-74
2022/04/28 02:44:32;;;;;;;8.88;5.78;;;14.10;99.90;;;;;;5095840;28;20043;-74
2022/04/28 02:46:58;;;;;;;7.28;5.78;;;14.20;99.90;;;;;;5097403;28;20035;-74
2022/04/28 02:49:24;;;;;;;8.15;6.50;;;14.20;99.90;;;;;;5097094;28;20020;-74
2022/04/28 02:51:50;;;;;;;8.80;6.35;;;14.20;99.90;;;;;;5097520;28;20016;-74
2022/04/28 02:54:15;;;;;;;8.00;6.18;;;14.10;99.90;;;;;;5097293;28;20017;-74
2022/04/28 02:56:41;;;;;;;13.63;6.18;;;14.20;99.90;;;;;;5097442;28;20479;-74
2022/04/28 02:59:08;;;;;;;8.50;5.65;;;14.20;99.90;;;;;;5097299;28;20036;-74
2022/04/28 03:01:34;;;;;;;10.10;6.00;;;14.20;99.90;;;;;;5097409;28;20056;-74
2022/04/28 03:04:00;;;;;;;7.63;5.53;;;14.20;99.90;;;;;;5097016;28;20039;-74
2022/04/28 03:11:56;;;;;;;11.00;6.20;;;14.10;99.90;;;;;;5097122;28;20070;-74
2022/04/28 03:14:21;;;;;;;10.85;6.68;;;14.10;99.90;;;;;;5095916;28;20043;-74
2022/04/28 03:16:47;;;;;;;11.32;6.10;;;14.10;99.90;;;;;;5083282;28;20024;-74
2022/04/28 03:19:13;;;;;;;10.05;6.63;;;14.10;99.90;;;;;;5099860;28;20475;-74
2022/04/28 03:21:40;;;;;;;10.82;6.75;;;14.10;99.90;;;;;;5099866;28;20483;-74
2022/04/28 03:24:06;;;;;;;11.70;6.97;;;14.10;99.90;;;;;;5101533;28;20462;-74
2022/04/28 03:26:32;;;;;;;11.95;6.45;;;14.00;99.90;;;;;;5101054;28;20024;-74
2022/04/28 03:28:58;;;;;;;12.80;6.93;;;14.10;99.90;;;;;;5101145;28;20433;-74
2022/04/28 03:31:24;;;;;;;9.95;6.45;;;14.10;99.90;;;;;;5101011;28;20091;-74
2022/04/28 03:33:50;;;;;;;10.75;6.55;;;14.10;99.90;;;;;;5100855;28;20069;-74
2022/04/28 03:39:00;;;;;;;10.65;6.20;;;14.00;99.90;;;;;;5101215;28;20047;-74
2022/04/28 03:41:27;;;;;;;11.68;6.68;;;14.00;99.90;;;;;;5099496;28;20032;-74
2022/04/28 03:43:53;;;;;;;8.38;6.93;;;14.00;99.90;;;;;;5100822;28;20460;-74
2022/04/28 03:46:19;;;;;;;14.65;7.35;;;14.00;99.90;;;;;;5100527;28;20108;-74
2022/04/28 03:48:48;;;;;;;13.48;8.07;;;14.00;99.90;;;;;;5100546;28;20040;-74
2022/04/28 03:51:14;;;;;;;14.38;7.88;;;13.90;99.90;;;;;;5101029;28;20472;-74
2022/04/28 03:53:40;;;;;;;10.93;8.35;;;13.80;99.90;;;;;;5100380;28;20024;-74
2022/04/28 03:56:06;;;;;;;15.25;7.10;;;13.80;99.90;;;;;;5100696;28;20035;-74
2022/04/28 03:58:32;;;;;;;18.00;8.35;;;13.80;99.90;;;;;;5100502;28;20028;-74
2022/04/28 04:00:59;;;;;;;11.73;7.88;;;13.80;99.90;;;;;;5090720;28;20058;-74
2022/04/28 04:03:25;;;;;;;13.23;7.35;;;13.80;99.90;;;;;;5092719;28;20024;-74
2022/04/28 04:05:51;;;;;;;12.48;7.75;;;13.80;99.90;;;;;;5100562;28;20441;-74
2022/04/28 04:08:17;;;;;;;11.55;8.15;;;13.80;99.90;;;;;;5100344;28;20020;-74
2022/04/28 04:10:43;;;;;;;13.10;8.57;;;13.80;99.90;;;;;;5100426;28;20027;-74
2022/04/28 04:13:09;;;;;;;12.88;8.32;;;13.80;99.90;;;;;;5100335;28;20146;-74
2022/04/28 04:15:35;;;;;;;16.23;8.68;;;13.80;99.90;;;;;;5093193;28;20043;-74
2022/04/28 04:18:02;;;;;;;11.18;8.57;;;13.80;99.90;;;;;;5093569;28;20601;-74
2022/04/28 04:20:28;;;;;;;13.38;9.00;;;13.80;99.90;;;;;;5100325;28;20038;-74
2022/04/28 04:22:55;;;;;;;18.90;10.50;;;13.90;99.90;;;;;;5098858;28;20092;-74
2022/04/28 04:25:21;;;;;;;14.65;9.20;;;13.90;99.90;;;;;;5098894;28;20631;-74
2022/04/28 04:27:48;;;;;;;16.83;10.30;;;13.90;99.90;;;;;;5100069;28;20034;-74
2022/04/28 04:32:58;;;;;;;15.90;8.52;;;13.80;99.90;;;;;;5099608;28;20100;-74
2022/04/28 04:35:24;;;;;;;16.92;10.63;;;13.80;99.90;;;;;;5098569;28;20047;-74
2022/04/28 04:37:51;;;;;;;15.85;10.05;;;13.80;99.90;;;;;;5100002;28;20062;-74
2022/04/28 04:40:17;;;;;;;17.13;9.43;;;13.80;99.90;;;;;;5099869;28;20498;-74
2022/04/28 04:42:43;;;;;;;13.68;10.20;;;13.80;99.90;;;;;;5099664;28;20095;-74
2022/04/28 04:45:09;;;;;;;16.38;10.10;;;13.80;99.90;;;;;;5099661;28;20097;-74
2022/04/28 04:47:36;;;;;;;15.48;10.30;;;13.80;99.90;;;;;;5099403;28;20028;-74
2022/04/28 04:50:04;;;;;;;13.30;9.95;;;13.80;99.90;;;;;;5099440;28;20032;-74
2022/04/28 04:52:30;;;;;;;19.65;9.80;;;13.80;99.90;;;;;;5098105;28;20480;-74
2022/04/28 04:54:56;;;;;;;13.57;8.68;;;13.80;99.90;;;;;;5099608;28;20024;-74
2022/04/28 04:57:22;;;;;;;17.08;9.35;;;13.80;99.90;;;;;;5099556;28;20035;-74
2022/04/28 04:59:48;;;;;;;14.45;8.45;;;13.80;99.90;;;;;;5097963;28;20085;-74
2022/04/28 05:02:14;;;;;;;16.95;9.32;;;13.80;99.90;;;;;;5099237;28;20016;-74
2022/04/28 05:04:39;;;;;;;16.17;9.52;;;13.80;99.90;;;;;;5099292;28;20024;-74
2022/04/28 05:07:06;;;;;;;9.70;8.52;;;13.80;99.90;;;;;;5097781;28;20020;-74
2022/04/28 05:09:32;;;;;;;9.10;7.57;;;13.80;99.90;;;;;;5099335;28;20020;-74
2022/04/28 05:11:58;;;;;;;13.10;8.45;;;13.80;99.90;;;;;;5097789;28;20384;-74
2022/04/28 05:14:24;;;;;;;12.00;8.60;;;13.80;99.90;;;;;;5099104;28;20070;-74
2022/04/28 05:16:50;;;;;;;19.35;12.13;;;13.80;99.90;;;;;;5085496;28;20024;-74
2022/04/28 05:19:16;;;;;;;15.73;11.80;;;13.80;99.90;;;;;;5098954;28;20056;-74
2022/04/28 05:21:42;;;;;;;19.85;13.10;;;13.80;99.90;;;;;;5093898;28;20057;-74
2022/04/28 05:24:08;;;;;;;16.20;12.05;;;13.80;99.90;;;;;;5098979;28;20028;-74
2022/04/28 05:26:33;;;;;;;16.80;12.10;;;13.80;99.90;;;;;;5098958;28;20024;-74
2022/04/28 05:28:59;;;;;;;16.67;12.13;;;13.80;99.90;;;;;;5098899;28;20065;-74
2022/04/28 05:31:25;;;;;;;18.40;13.02;;;13.90;99.90;;;;;;5097968;28;20020;-74
2022/04/28 05:33:51;;;;;;;20.52;12.82;;;13.90;99.90;;;;;;5087597;28;20031;-74
2022/04/28 05:36:17;;;;;;;15.18;12.27;;;13.90;99.90;;;;;;5086927;28;20483;-74
2022/04/28 05:38:44;;;;;;;18.23;12.25;;;13.90;99.90;;;;;;5083993;28;20031;-74
2022/04/28 05:41:10;;;;;;;14.07;11.88;;;13.90;99.90;;;;;;5111783;28;20028;-74
2022/04/28 05:46:23;;;;;;;18.90;11.65;;;13.90;99.90;;;;;;5098231;28;20055;-74
2022/04/28 05:48:49;;;;;;;22.00;12.48;;;13.90;99.90;;;;;;5098148;28;20020;-74
2022/04/28 05:51:15;;;;;;;18.40;12.13;;;14.00;99.90;;;;;;5098543;28;20020;-74
2022/04/28 05:53:41;;;;;;;20.08;13.35;;;14.00;99.90;;;;;;5097202;28;20107;-74
2022/04/28 05:56:07;;;;;;;17.67;13.20;;;14.10;99.90;;;;;;5091031;28;20480;-75
2022/04/28 05:58:33;;;;;;;21.33;13.88;;;14.00;99.90;;;;;;5091328;28;20032;-74
2022/04/28 06:00:59;;;;;;;18.52;14.35;;;14.10;99.90;;;;;;5096810;28;20024;-73
2022/04/28 06:03:25;;;;;;;21.13;13.07;;;14.20;99.90;;;;;;5097917;28;20024;-74
2022/04/28 06:05:51;;;;;;;19.60;13.00;;;14.20;99.90;;;;;;5096878;28;20491;-73
2022/04/28 06:08:17;;;;;;;20.67;14.15;;;14.30;99.90;;;;;;5098295;28;20073;-73
2022/04/28 06:10:43;;;;;;;18.20;12.60;;;14.40;99.90;;;;;;5098206;28;20091;-73
2022/04/28 06:13:09;;;;;;;21.50;12.27;;;14.40;99.90;;;;;;5096649;28;20107;-73
2022/04/28 06:15:35;;;;;;;22.95;12.07;;;14.50;99.90;;;;;;5090911;28;20028;-73
2022/04/28 06:18:01;;;;;;;17.55;10.98;;;14.50;99.90;;;;;;5091412;28;20411;-73
2022/04/28 06:20:26;;;;;;;18.25;11.32;;;14.50;99.90;;;;;;5098042;28;20017;-73
2022/04/28 06:22:52;;;;;;;21.15;14.07;;;14.60;99.90;;;;;;5088004;28;20502;-73
2022/04/28 06:25:18;;;;;;;19.90;13.15;;;14.70;99.90;;;;;;5096551;28;20442;-73
2022/04/28 06:27:44;;;;;;;18.63;14.20;;;14.70;99.90;;;;;;5097808;28;20024;-73
2022/04/28 06:30:11;;;;;;;18.77;13.02;;;14.80;99.90;;;;;;5096355;28;20032;-73
2022/04/28 06:32:37;;;;;;;19.02;12.85;;;14.80;99.90;;;;;;5097678;28;20024;-74
2022/04/28 06:35:04;;;;;;;17.45;14.25;;;14.80;99.90;;;;;;5096353;28;20024;-73
2022/04/28 06:37:30;;;;;;;18.70;12.68;;;14.80;99.90;;;;;;5097612;28;20068;-74
2022/04/28 06:39:55;;;;;;;19.23;12.90;;;14.90;99.90;;;;;;5096382;28;20061;-74
2022/04/28 06:42:21;;;;;;;16.55;11.82;;;14.90;99.90;;;;;;5097714;28;20499;-74
2022/04/28 06:44:47;;;;;;;17.13;11.38;;;15.00;99.90;;;;;;5097147;28;20046;-73
2022/04/28 06:47:13;;;;;;;15.90;10.98;;;15.10;99.90;;;;;;5096096;28;20059;-73
2022/04/28 06:49:39;;;;;;;13.88;10.77;;;15.20;99.90;;;;;;5089606;28;20025;-73
2022/04/28 06:52:05;;;;;;;15.93;11.35;;;15.30;99.90;;;;;;5089167;28;20024;-73
2022/04/28 06:54:31;;;;;;;19.75;11.60;;;15.40;99.90;;;;;;5096951;28;20137;-73
2022/04/28 06:56:58;;;;;;;19.40;13.20;;;15.50;99.90;;;;;;5097469;28;20078;-73
2022/04/28 06:59:24;;;;;;;17.63;12.68;;;15.50;99.90;;;;;;5097212;28;20020;-73
2022/04/28 07:01:50;;;;;;;16.08;10.13;;;15.60;99.90;;;;;;5097374;28;20032;-73
2022/04/28 07:04:16;;;;;;;21.08;12.02;;;15.70;99.90;;;;;;5087807;28;20317;-73
2022/04/28 07:06:42;;;;;;;16.23;11.57;;;15.80;99.90;;;;;;5095856;28;20153;-73
2022/04/28 07:09:08;;;;;;;18.58;11.15;;;15.90;99.90;;;;;;5097242;28;20027;-74
2022/04/28 07:11:34;;;;;;;12.70;9.75;;;16.00;99.90;;;;;;5091277;28;20020;-74
2022/04/28 07:14:00;;;;;;;19.00;10.73;;;16.00;99.90;;;;;;5083373;28;20016;-74
2022/04/28 07:16:25;;;;;;;19.83;10.48;;;16.20;99.90;;;;;;5083531;28;20029;-73
2022/04/28 07:18:51;;;;;;;19.98;10.65;;;16.30;99.90;;;;;;5087020;28;20043;-73
2022/04/28 07:21:17;;;;;;;18.60;8.75;;;16.30;99.90;;;;;;5097093;28;20028;-73
2022/04/28 07:23:43;;;;;;;16.02;8.75;;;16.30;99.90;;;;;;5082595;28;20480;-73
2022/04/28 07:26:09;;;;;;;15.65;9.77;;;16.50;99.90;;;;;;5096977;28;20032;-74
2022/04/28 07:28:35;;;;;;;16.40;8.93;;;16.60;99.90;;;;;;5097080;28;20016;-73
2022/04/28 07:31:03;;;;;;;25.48;10.48;;;16.60;99.90;;;;;;5095525;28;20032;-73
2022/04/28 07:33:28;;;;;;;15.85;8.70;;;16.70;99.90;;;;;;5096764;28;20472;-75
2022/04/28 07:35:54;;;;;;;14.23;9.02;;;16.80;99.90;;;;;;5076355;28;20085;-76
2022/04/28 07:38:22;;;;;;;17.42;8.68;;;17.00;99.90;;;;;;5073175;28;20078;-76
2022/04/28 07:40:48;;;;;;;15.05;9.10;;;17.20;99.90;;;;;;5077741;28;20017;-76
2022/04/28 07:43:14;;;;;;;14.10;9.57;;;17.00;99.90;;;;;;5076352;28;20024;-75
2022/04/28 07:45:40;;;;;;;19.85;8.70;;;17.30;99.90;;;;;;5076956;28;20450;-76
2022/04/28 07:48:06;;;;;;;22.75;10.70;;;17.30;99.90;;;;;;5074370;28;20021;-76
2022/04/28 07:50:32;;;;;;;31.30;9.15;;;17.30;99.90;;;;;;5074177;28;20024;-74
2022/04/28 07:52:58;;;;;;;15.45;8.70;;;17.30;99.90;;;;;;5077272;28;20021;-74
2022/04/28 07:55:24;;;;;;;13.93;8.10;;;17.50;99.90;;;;;;5075743;28;20421;-75
2022/04/28 07:57:50;;;;;;;14.60;8.35;;;17.60;99.90;;;;;;5076812;28;20020;-74
2022/04/28 08:00:16;;;;;;;18.50;8.00;;;17.70;99.90;;;;;;5073738;28;20492;-75
2022/04/28 08:02:42;;;;;;;18.98;7.80;;;17.80;99.90;;;;;;5073881;28;20028;-75
2022/04/28 08:05:08;;;;;;;14.88;9.07;;;18.00;99.90;;;;;;5075701;28;20021;-76
2022/04/28 08:07:34;;;;;;;12.48;8.05;;;18.10;99.90;;;;;;5081407;28;20502;-75
2022/04/28 08:10:00;;;;;;;11.63;8.25;;;18.10;99.90;;;;;;5079751;28;20609;-76
2022/04/28 08:12:26;;;;;;;15.07;9.90;;;18.20;99.90;;;;;;5098417;28;20021;-76
2022/04/28 08:14:52;;;;;;;17.52;8.63;;;18.40;99.90;;;;;;5093348;28;20439;-75
2022/04/28 08:17:19;;;;;;;17.33;8.93;;;18.30;99.90;;;;;;5087790;28;20487;-75
2022/04/28 08:19:45;;;;;;;11.60;7.65;;;18.20;99.90;;;;;;5092695;28;20499;-73
2022/04/28 08:22:11;;;;;;;12.48;8.52;;;18.00;99.90;;;;;;5088117;28;20032;-76
2022/04/28 08:24:37;;;;;;;17.50;7.47;;;17.90;99.90;;;;;;5084783;28;20165;-75
2022/04/28 08:27:03;;;;;;;14.48;8.82;;;17.90;99.90;;;;;;5099817;28;20020;-74
2022/04/28 08:29:29;;;;;;;14.82;8.18;;;17.80;99.90;;;;;;5099694;28;20093;-74
2022/04/28 08:31:55;;;;;;;15.77;9.00;;;18.00;99.90;;;;;;5090796;28;20480;-74
2022/04/28 08:34:22;;;;;;;15.32;7.63;;;17.80;99.90;;;;;;5098325;28;20078;-74
2022/04/28 08:36:49;;;;;;;13.93;6.65;;;17.80;99.90;;;;;;5074679;28;20053;-74
2022/04/28 08:39:15;;;;;;;9.95;7.35;;;17.60;99.90;;;;;;5077238;28;20439;-74
2022/04/28 08:41:47;;;;;;;14.63;8.63;;;17.50;99.90;;;;;;5081728;28;20021;-74
2022/04/28 08:44:23;;;;;;;17.42;7.75;;;17.20;99.90;;;;;;5094245;28;20073;-74
2022/04/28 08:46:52;;;;;;;10.38;8.40;;;17.20;99.90;;;;;;5099684;28;20020;-74
2022/04/28 08:49:25;;;;;;;13.43;8.32;;;17.20;99.90;;;;;;5099179;28;20086;-74
2022/04/28 08:51:58;;;;;;;15.73;8.93;;;17.30;99.90;;;;;;5098274;28;20024;-74
2022/04/28 08:54:26;;;;;;;16.30;8.77;;;17.20;99.90;;;;;;5086439;28;20073;-74
2022/04/28 08:56:54;;;;;;;16.35;9.80;;;17.00;99.90;;;;;;5099558;28;20041;-74
2022/04/28 08:59:21;;;;;;;15.63;9.07;;;17.00;99.90;;;;;;5091479;28;20052;-74
2022/04/28 09:01:48;;;;;;;21.35;9.25;;;17.00;99.90;;;;;;5091422;28;20031;-74
2022/04/28 09:04:14;;;;;;;17.08;10.07;;;16.90;99.90;;;;;;5098897;28;20594;-74
2022/04/28 09:06:42;;;;;;;15.30;9.90;;;16.80;99.90;;;;;;5084536;28;20035;-74
2022/04/28 09:09:10;;;;;;;16.00;8.48;;;16.80;99.90;;;;;;5084578;28;20052;-73
2022/04/28 09:11:39;;;;;;;13.30;8.32;;;16.80;99.90;;;;;;5098914;28;20027;-73
2022/04/28 09:14:11;;;;;;;14.50;8.75;;;16.90;99.90;;;;;;5088646;28;20032;-74
2022/04/28 09:16:42;;;;;;;9.57;8.57;;;16.80;99.90;;;;;;5078794;28;20031;-75
2022/04/28 09:19:11;;;;;;;13.02;8.55;;;16.70;99.90;;;;;;5092894;28;20107;-74
2022/04/28 09:21:37;;;;;;;16.40;8.30;;;16.70;99.90;;;;;;5089251;28;20020;-74
2022/04/28 09:24:04;;;;;;;9.05;7.13;;;16.60;99.90;;;;;;5088735;28;20028;-75
2022/04/28 09:26:32;;;;;;;12.05;8.32;;;16.50;99.90;;;;;;5084951;28;20028;-74
2022/04/28 09:29:02;;;;;;;13.07;8.57;;;16.50;99.90;;;;;;5086722;28;20097;-74
2022/04/28 09:31:32;;;;;;;11.85;8.82;;;16.40;99.90;;;;;;5082540;28;20495;-74
2022/04/28 09:34:04;;;;;;;18.70;8.35;;;16.30;99.90;;;;;;5084372;28;20021;-75
2022/04/28 09:36:30;;;;;;;15.88;8.27;;;16.30;99.90;;;;;;5097643;28;20020;-75
2022/04/28 09:38:56;;;;;;;12.63;8.57;;;16.30;99.90;;;;;;5098744;28;20097;-74
2022/04/28 09:44:06;;;;;;;15.15;7.85;;;16.40;99.90;;;;;;5093511;28;20039;-75
2022/04/28 09:46:43;;;;;;;10.68;8.15;;;16.50;99.90;;;;;;5091099;28;20056;-74
2022/04/28 09:49:11;;;;;;;19.00;8.50;;;16.50;99.90;;;;;;5075501;28;20048;-74
2022/04/28 09:51:40;;;;;;;12.20;7.40;;;16.50;99.90;;;;;;5088774;28;20032;-74
2022/04/28 09:54:08;;;;;;;10.45;6.65;;;16.50;99.90;;;;;;5092678;28;20055;-75
2022/04/28 09:56:37;;;;;;;12.30;6.30;;;16.50;99.90;;;;;;5076558;28;20024;-75
2022/04/28 09:59:05;;;;;;;13.02;8.65;;;16.50;99.90;;;;;;5076264;28;20025;-74
2022/04/28 10:01:34;;;;;;;16.83;6.63;;;16.50;99.90;;;;;;5076987;28;20465;-74
2022/04/28 10:04:00;;;;;;;13.50;6.50;;;16.50;99.90;;;;;;5096992;28;20031;-75
2022/04/28 10:06:28;;;;;;;13.00;6.97;;;16.50;99.90;;;;;;5090989;28;20117;-74
2022/04/28 10:08:56;;;;;;;12.45;7.22;;;16.50;99.90;;;;;;5083952;28;20020;-74
2022/04/28 10:11:24;;;;;;;10.70;7.13;;;16.50;99.90;;;;;;5096312;28;20030;-74
2022/04/28 10:13:51;;;;;;;10.48;6.93;;;16.60;99.90;;;;;;5084504;28;20099;-75
2022/04/28 10:16:21;;;;;;;10.73;7.28;;;16.70;99.90;;;;;;5084948;28;20158;-74
2022/04/28 10:19:22;;;;;;;16.03;8.57;;;16.70;99.90;;;;;;5097390;28;20550;-76
2022/04/28 10:21:48;;;;;;;;;;;16.80;99.90;;;;;;5044627;28;20036;-77
2022/04/28 10:32:56;;;;;;;16.80;9.20;;;16.70;99.90;;;;;;5084840;28;20545;-76
2022/04/28 10:35:43;;;;;;;16.70;9.50;;;16.80;99.90;;;;;;5097503;28;20384;-74
2022/04/28 10:38:31;;;;;;;16.70;9.40;;;16.90;99.90;;;;;;5093808;28;20457;-74
2022/04/28 10:41:02;;;;;;;12.85;8.18;;;17.00;99.90;;;;;;5085231;28;20029;-74
2022/04/28 10:43:39;;;;;;;11.35;7.95;;;17.10;99.90;;;;;;5097733;28;20103;-75
2022/04/28 10:46:07;;;;;;;12.05;7.75;;;17.10;99.90;;;;;;5097003;28;20052;-74
2022/04/28 10:48:53;;;;;;;14.90;8.48;;;17.20;99.90;;;;;;5096708;28;20044;-74
2022/04/28 10:51:26;;;;;;;15.13;7.80;;;17.20;99.90;;;;;;5097552;28;20027;-74
2022/04/28 10:54:00;;;;;;;14.32;7.47;;;17.20;99.90;;;;;;5097105;28;20357;-74
2022/04/28 10:56:31;;;;;;;11.85;9.20;;;17.20;99.90;;;;;;5097196;28;20020;-74
2022/04/28 10:59:21;;;;;;;15.57;8.10;;;17.20;99.90;;;;;;5082021;28;20035;-74
2022/04/28 11:01:47;;;;;;;13.82;8.00;;;17.30;99.90;;;;;;5071569;28;20492;-74
2022/04/28 11:04:19;;;;;;;14.30;8.13;;;17.50;99.90;;;;;;5072775;28;20442;-74
2022/04/28 11:06:56;;;;;;;17.95;7.32;;;17.70;99.90;;;;;;5090797;28;20028;-74
2022/04/28 11:09:42;;;;;;;15.90;8.27;;;17.90;99.90;;;;;;5097263;28;20032;-74
2022/04/28 11:12:12;;;;;;;15.95;7.93;;;18.10;99.90;;;;;;5095439;28;20024;-74
2022/04/28 11:14:59;;;;;;;13.18;7.60;;;18.20;99.90;;;;;;5089263;28;20052;-75
2022/04/28 11:17:28;;;;;;;12.02;8.05;;;18.10;99.90;;;;;;5096053;28;20170;-74
2022/04/28 11:19:54;;;;;;;17.15;7.80;;;18.10;99.90;;;;;;5082735;28;20033;-74
2022/04/28 11:22:21;;;;;;;12.02;8.07;;;18.00;99.90;;;;;;5077703;28;20485;-75
2022/04/28 11:24:47;;;;;;;11.15;8.02;;;17.80;99.90;;;;;;5077399;28;20056;-74
2022/04/28 11:27:21;;;;;;;12.98;8.27;;;17.70;99.90;;;;;;5079234;28;20032;-76
2022/04/28 11:29:50;;;;;;;13.82;8.48;;;17.60;99.90;;;;;;5078778;28;20101;-75
2022/04/28 11:32:16;;;;;;;15.65;9.02;;;17.50;99.90;;;;;;5086726;28;20028;-74
2022/04/28 11:34:44;;;;;;;15.35;8.85;;;17.50;99.90;;;;;;5091516;28;20015;-74
2022/04/28 11:37:17;;;;;;;14.38;9.07;;;17.50;99.90;;;;;;5076663;28;20024;-75
2022/04/28 11:39:47;;;;;;;14.13;8.40;;;17.40;99.90;;;;;;5080852;28;20025;-76
2022/04/28 11:42:18;;;;;;;9.98;8.13;;;17.50;99.90;;;;;;5080556;28;20028;-75
2022/04/28 11:44:45;;;;;;;;;;;17.50;99.90;;;;;;5080441;28;20039;-75
2022/04/28 11:47:11;;;;;;;13.50;8.57;;;17.50;99.90;;;;;;5079884;28;19920;-76
2022/04/28 11:49:40;;;;;;;13.55;9.40;;;17.60;99.90;;;;;;5076179;28;20017;-75
2022/04/28 11:52:24;;;;;;;11.70;8.05;;;17.80;99.90;;;;;;5080494;28;20028;-75
2022/04/28 11:55:09;;;;;;;14.85;7.88;;;18.10;99.90;;;;;;5079311;28;20100;-76
2022/04/28 11:57:42;;;;;;;12.60;8.20;;;18.50;99.90;;;;;;5082308;28;20013;-76
2022/04/28 12:00:12;;;;;;;12.23;8.30;;;18.80;99.90;;;;;;5082512;28;20040;-76
2022/04/28 12:02:39;;;;;;;17.48;7.93;;;18.80;99.90;;;;;;5081697;28;20033;-75
2022/04/28 12:05:19;;;;;;;13.32;8.52;;;18.90;99.90;;;;;;5082526;28;20070;-76
2022/04/28 12:07:52;;;;;;;13.17;8.20;;;18.90;99.90;;;;;;5080337;28;20035;-76
2022/04/28 12:16:01;;;;;;;13.48;8.25;;;18.90;99.90;;;;;;5089776;28;20553;-76
2022/04/28 12:21:25;;;;;;;13.18;8.13;;;19.20;99.90;;;;;;5096118;28;20039;-76
2022/04/28 12:23:58;;;;;;;14.55;8.30;;;19.40;99.90;;;;;;5097248;28;20064;-75
2022/04/28 12:26:25;;;;;;;11.68;8.30;;;19.60;99.90;;;;;;5093814;28;20046;-76
2022/04/28 12:28:52;;;;;;;15.55;8.35;;;19.80;99.90;;;;;;5100035;28;20567;-75
2022/04/28 12:31:29;;;;;;;12.10;7.72;;;19.80;99.90;;;;;;5100088;28;20547;-73
2022/04/28 12:33:56;;;;;;;11.50;9.00;;;19.70;99.90;;;;;;5099133;28;20052;-73
2022/04/28 12:36:22;;;;;;;17.83;9.55;;;19.80;99.90;;;;;;5098984;28;20511;-73
2022/04/28 12:38:56;;;;;;;20.55;9.85;;;19.80;99.90;;;;;;5099145;28;20028;-75
2022/04/28 12:41:24;;;;;;;15.48;10.80;;;19.80;99.90;;;;;;5099081;28;20038;-76
2022/04/28 12:43:52;;;;;;;19.63;9.70;;;20.00;99.90;;;;;;5098809;28;20027;-75
2022/04/28 12:46:36;;;;;;;14.77;9.00;;;19.70;99.90;;;;;;5097269;28;20453;-76
2022/04/28 12:49:09;;;;;;;11.02;8.57;;;19.70;99.90;;;;;;5097669;28;20037;-76
2022/04/28 12:51:42;;;;;;;13.60;9.55;;;19.90;99.90;;;;;;5098928;28;20080;-77
2022/04/28 12:54:09;;;;;;;14.75;8.60;;;19.90;99.90;;;;;;5099651;28;20013;-76
2022/04/28 12:56:37;;;;;;;13.60;9.40;;;19.70;99.90;;;;;;5098257;28;20148;-75
2022/04/28 12:59:08;;;;;;;14.15;9.70;;;19.50;99.90;;;;;;5098007;28;20020;-75
2022/04/28 13:01:35;;;;;;;13.50;9.40;;;19.40;99.90;;;;;;5098299;28;20548;-72
2022/04/28 13:04:05;;;;;;;13.32;8.52;;;19.40;99.90;;;;;;5099341;28;20012;-76
2022/04/28 13:06:33;;;;;;;11.68;8.80;;;19.40;99.90;;;;;;5099383;28;20099;-75
2022/04/28 13:09:00;;;;;;;10.75;7.70;;;19.40;99.90;;;;;;5099352;28;20028;-75
2022/04/28 13:11:32;;;;;;;12.30;8.35;;;19.40;99.90;;;;;;5098053;28;20502;-75
2022/04/28 13:14:00;;;;;;;10.52;7.75;;;19.40;99.90;;;;;;5097734;28;20020;-76
2022/04/28 13:16:27;;;;;;;18.15;9.07;;;19.50;99.90;;;;;;5085533;28;20024;-76
2022/04/28 13:18:53;;;;;;;13.77;9.07;;;19.40;99.90;;;;;;5099204;28;20048;-75